sensor_id;sensor_type;location;lat;lon;timestamp;pressure;altitude;pressure_sealevel;temperature;humidity
8569;BME280;4322;51.104;-4.162;2022-11-15T00:01:15;101075.47;;;12.12;100.00
8569;BME280;4322;51.104;-4.162;2022-11-15T00:03:44;101065.94;;;12.11;100.00
8569;BME280;4322;51.104;-4.162;2022-11-15T00:06:13;101055.50;;;12.11;100.00
8569;BME280;4322;51.104;-4.162;2022-11-15T00:08:42;101034.59;;;12.11;100.00
8569;BME280;4322;51.104;-4.162;2022-11-15T00:11:11;101011.09;;;12.11;100.00
8569;BME280;4322;51.104;-4.162;2022-11-15T00:13:40;100996.31;;;12.10;100.00
8569;BME280;4322;51.104;-4.162;2022-11-15T00:16:08;100972.81;;;12.10;100.00
8569;BME280;4322;51.104;-4.162;2022-11-15T00:18:37;100960.69;;;12.09;100.00
8569;BME280;4322;51.104;-4.162;2022-11-15T00:21:07;100929.50;;;12.06;100.00
8569;BME280;4322;51.104;-4.162;2022-11-15T00:23:36;100904.28;;;12.05;100.00
8569;BME280;4322;51.104;-4.162;2022-11-15T00:26:06;100885.16;;;12.04;100.00
8569;BME280;4322;51.104;-4.162;2022-11-15T00:28:34;100863.50;;;12.02;100.00
8569;BME280;4322;51.104;-4.162;2022-11-15T00:31:04;100837.50;;;12.01;100.00
8569;BME280;4322;51.104;-4.162;2022-11-15T00:33:32;100805.13;;;12.03;100.00
8569;BME280;4322;51.104;-4.162;2022-11-15T00:36:01;100772.19;;;12.01;100.00
8569;BME280;4322;51.104;-4.162;2022-11-15T00:38:31;100747.00;;;12.00;100.00
8569;BME280;4322;51.104;-4.162;2022-11-15T00:41:00;100720.13;;;11.98;100.00
8569;BME280;4322;51.104;-4.162;2022-11-15T00:43:36;100685.44;;;11.96;100.00
8569;BME280;4322;51.104;-4.162;2022-11-15T00:46:06;100655.94;;;11.93;100.00
8569;BME280;4322;51.104;-4.162;2022-11-15T00:48:36;100611.53;;;11.93;100.00
8569;BME280;4322;51.104;-4.162;2022-11-15T00:51:04;100579.47;;;11.91;100.00
8569;BME280;4322;51.104;-4.162;2022-11-15T00:53:32;100547.22;;;11.92;100.00
8569;BME280;4322;51.104;-4.162;2022-11-15T00:56:00;100521.09;;;11.92;100.00
8569;BME280;4322;51.104;-4.162;2022-11-15T00:58:28;100493.28;;;11.91;100.00
8569;BME280;4322;51.104;-4.162;2022-11-15T01:01:05;100450.66;;;11.91;100.00
8569;BME280;4322;51.104;-4.162;2022-11-15T01:03:33;100418.47;;;11.90;100.00
8569;BME280;4322;51.104;-4.162;2022-11-15T01:06:02;100390.59;;;11.91;100.00
8569;BME280;4322;51.104;-4.162;2022-11-15T01:08:30;100371.50;;;11.90;100.00
8569;BME280;4322;51.104;-4.162;2022-11-15T01:11:01;100355.94;;;11.89;100.00
8569;BME280;4322;51.104;-4.162;2022-11-15T01:13:33;100335.88;;;11.89;100.00
8569;BME280;4322;51.104;-4.162;2022-11-15T01:16:07;100318.53;;;11.88;100.00
8569;BME280;4322;51.104;-4.162;2022-11-15T01:18:36;100303.72;;;11.89;100.00
8569;BME280;4322;51.104;-4.162;2022-11-15T01:21:06;100291.50;;;11.89;100.00
8569;BME280;4322;51.104;-4.162;2022-11-15T01:23:34;100268.94;;;11.88;100.00
8569;BME280;4322;51.104;-4.162;2022-11-15T01:26:04;100249.72;;;11.89;100.00
8569;BME280;4322;51.104;-4.162;2022-11-15T01:28:33;100239.28;;;11.89;100.00
8569;BME280;4322;51.104;-4.162;2022-11-15T01:31:03;100210.66;;;11.88;100.00
8569;BME280;4322;51.104;-4.162;2022-11-15T01:33:34;100203.75;;;11.87;100.00
8569;BME280;4322;51.104;-4.162;2022-11-15T01:36:04;100188.09;;;11.87;100.00
8569;BME280;4322;51.104;-4.162;2022-11-15T01:38:32;100166.38;;;11.86;100.00
8569;BME280;4322;51.104;-4.162;2022-11-15T01:41:00;100154.25;;;11.85;100.00
8569;BME280;4322;51.104;-4.162;2022-11-15T01:43:31;100147.38;;;11.84;100.00
8569;BME280;4322;51.104;-4.162;2022-11-15T01:46:02;100123.88;;;11.84;100.00
8569;BME280;4322;51.104;-4.162;2022-11-15T01:48:34;100106.53;;;11.83;100.00
8569;BME280;4322;51.104;-4.162;2022-11-15T01:51:06;100088.25;;;11.83;100.00
8569;BME280;4322;51.104;-4.162;2022-11-15T01:53:37;100059.53;;;11.83;100.00
8569;BME280;4322;51.104;-4.162;2022-11-15T01:56:08;100045.63;;;11.83;100.00
8569;BME280;4322;51.104;-4.162;2022-11-15T01:58:37;100025.59;;;11.83;100.00
8569;BME280;4322;51.104;-4.162;2022-11-15T02:01:07;100015.16;;;11.83;100.00
8569;BME280;4322;51.104;-4.162;2022-11-15T02:03:41;99992.50;;;11.84;100.00
8569;BME280;4322;51.104;-4.162;2022-11-15T02:06:12;99986.44;;;11.83;100.00
8569;BME280;4322;51.104;-4.162;2022-11-15T02:08:40;99969.00;;;11.84;100.00
8569;BME280;4322;51.104;-4.162;2022-11-15T02:11:09;99955.97;;;11.84;100.00
8569;BME280;4322;51.104;-4.162;2022-11-15T02:13:38;99951.56;;;11.84;100.00
8569;BME280;4322;51.104;-4.162;2022-11-15T02:16:13;99941.94;;;11.85;100.00
8569;BME280;4322;51.104;-4.162;2022-11-15T02:18:52;99931.50;;;11.85;100.00
8569;BME280;4322;51.104;-4.162;2022-11-15T02:21:29;99916.69;;;11.85;100.00
8569;BME280;4322;51.104;-4.162;2022-11-15T02:24:12;99907.09;;;11.86;100.00
8569;BME280;4322;51.104;-4.162;2022-11-15T02:29:48;99887.97;;;11.85;100.00
8569;BME280;4322;51.104;-4.162;2022-11-15T02:32:38;99884.44;;;11.86;100.00
8569;BME280;4322;51.104;-4.162;2022-11-15T02:35:14;99867.09;;;11.85;100.00
8569;BME280;4322;51.104;-4.162;2022-11-15T02:37:49;99856.66;;;11.85;100.00
8569;BME280;4322;51.104;-4.162;2022-11-15T02:40:27;99847.88;;;11.86;100.00
8569;BME280;4322;51.104;-4.162;2022-11-15T02:43:03;99843.50;;;11.87;100.00
8569;BME280;4322;51.104;-4.162;2022-11-15T02:45:55;99845.28;;;11.86;100.00
8569;BME280;4322;51.104;-4.162;2022-11-15T02:48:26;99839.13;;;11.87;100.00
8569;BME280;4322;51.104;-4.162;2022-11-15T02:50:54;99821.56;;;11.89;100.00
8569;BME280;4322;51.104;-4.162;2022-11-15T02:53:24;99822.41;;;11.90;100.00
8569;BME280;4322;51.104;-4.162;2022-11-15T02:55:53;99807.56;;;11.90;100.00
8569;BME280;4322;51.104;-4.162;2022-11-15T02:58:48;99783.97;;;11.92;100.00
8569;BME280;4322;51.104;-4.162;2022-11-15T03:01:33;99758.69;;;11.92;100.00
8569;BME280;4322;51.104;-4.162;2022-11-15T03:04:19;99750.75;;;11.94;100.00
8569;BME280;4322;51.104;-4.162;2022-11-15T03:06:55;99748.97;;;11.94;100.00
8569;BME280;4322;51.104;-4.162;2022-11-15T03:09:33;99743.63;;;11.96;100.00
8569;BME280;4322;51.104;-4.162;2022-11-15T03:12:07;99734.03;;;11.97;100.00
8569;BME280;4322;51.104;-4.162;2022-11-15T03:14:41;99721.69;;;11.99;100.00
8569;BME280;4322;51.104;-4.162;2022-11-15T03:17:17;99717.31;;;11.99;100.00
8569;BME280;4322;51.104;-4.162;2022-11-15T03:19:49;99692.88;;;12.00;100.00
8569;BME280;4322;51.104;-4.162;2022-11-15T03:22:20;99705.81;;;12.02;100.00
8569;BME280;4322;51.104;-4.162;2022-11-15T03:24:53;99691.81;;;12.03;100.00
8569;BME280;4322;51.104;-4.162;2022-11-15T03:27:24;99694.31;;;12.04;100.00
8569;BME280;4322;51.104;-4.162;2022-11-15T03:29:56;99692.44;;;12.06;100.00
8569;BME280;4322;51.104;-4.162;2022-11-15T03:32:29;99676.66;;;12.08;100.00
8569;BME280;4322;51.104;-4.162;2022-11-15T03:35:02;99670.50;;;12.09;100.00
8569;BME280;4322;51.104;-4.162;2022-11-15T03:37:35;99672.13;;;12.10;100.00
8569;BME280;4322;51.104;-4.162;2022-11-15T03:40:05;99667.66;;;12.12;100.00
8569;BME280;4322;51.104;-4.162;2022-11-15T03:42:38;99661.47;;;12.13;100.00
8569;BME280;4322;51.104;-4.162;2022-11-15T03:45:13;99652.69;;;12.14;100.00
8569;BME280;4322;51.104;-4.162;2022-11-15T03:47:44;99636.09;;;12.15;100.00
8569;BME280;4322;51.104;-4.162;2022-11-15T03:50:17;99628.13;;;12.16;100.00
8569;BME280;4322;51.104;-4.162;2022-11-15T03:52:47;99614.94;;;12.18;100.00
8569;BME280;4322;51.104;-4.162;2022-11-15T03:55:19;99603.56;;;12.19;100.00
8569;BME280;4322;51.104;-4.162;2022-11-15T03:57:49;99587.78;;;12.20;100.00
8569;BME280;4322;51.104;-4.162;2022-11-15T04:00:18;99587.69;;;12.22;100.00
8569;BME280;4322;51.104;-4.162;2022-11-15T04:02:46;99571.88;;;12.23;100.00
8569;BME280;4322;51.104;-4.162;2022-11-15T04:05:15;99563.81;;;12.26;100.00
8569;BME280;4322;51.104;-4.162;2022-11-15T04:07:43;99550.44;;;12.31;100.00
8569;BME280;4322;51.104;-4.162;2022-11-15T04:10:14;99546.53;;;12.36;100.00
8569;BME280;4322;51.104;-4.162;2022-11-15T04:12:44;99540.47;;;12.47;100.00
8569;BME280;4322;51.104;-4.162;2022-11-15T04:15:15;99512.91;;;12.54;100.00
8569;BME280;4322;51.104;-4.162;2022-11-15T04:17:45;99494.75;;;12.64;100.00
8569;BME280;4322;51.104;-4.162;2022-11-15T04:20:17;99470.72;;;12.70;100.00
8569;BME280;4322;51.104;-4.162;2022-11-15T04:23:04;99445.88;;;12.75;100.00
8569;BME280;4322;51.104;-4.162;2022-11-15T04:25:52;99418.56;;;12.79;100.00
8569;BME280;4322;51.104;-4.162;2022-11-15T04:28:20;99393.13;;;12.81;100.00
8569;BME280;4322;51.104;-4.162;2022-11-15T04:30:48;99363.16;;;12.85;100.00
8569;BME280;4322;51.104;-4.162;2022-11-15T04:33:16;99338.66;;;12.86;100.00
8569;BME280;4322;51.104;-4.162;2022-11-15T04:35:46;99329.88;;;12.87;100.00
8569;BME280;4322;51.104;-4.162;2022-11-15T04:38:34;99315.84;;;12.88;100.00
8569;BME280;4322;51.104;-4.162;2022-11-15T04:41:03;99294.91;;;12.88;100.00
8569;BME280;4322;51.104;-4.162;2022-11-15T04:43:31;99294.22;;;12.86;100.00
8569;BME280;4322;51.104;-4.162;2022-11-15T04:45:59;99285.34;;;12.78;100.00
8569;BME280;4322;51.104;-4.162;2022-11-15T04:48:27;99287.41;;;12.74;100.00
8569;BME280;4322;51.104;-4.162;2022-11-15T04:50:57;99272.66;;;12.73;100.00
8569;BME280;4322;51.104;-4.162;2022-11-15T04:53:25;99264.25;;;12.70;100.00
8569;BME280;4322;51.104;-4.162;2022-11-15T04:55:53;99257.47;;;12.67;100.00
8569;BME280;4322;51.104;-4.162;2022-11-15T04:58:21;99251.41;;;12.67;100.00
8569;BME280;4322;51.104;-4.162;2022-11-15T05:00:49;99249.34;;;12.61;100.00
8569;BME280;4322;51.104;-4.162;2022-11-15T05:03:17;99230.00;;;12.52;100.00
8569;BME280;4322;51.104;-4.162;2022-11-15T05:06:05;99217.00;;;12.41;100.00
8569;BME280;4322;51.104;-4.162;2022-11-15T05:08:33;99210.03;;;12.30;100.00
8569;BME280;4322;51.104;-4.162;2022-11-15T05:11:01;99208.06;;;12.23;100.00
8569;BME280;4322;51.104;-4.162;2022-11-15T05:13:29;99206.88;;;12.16;100.00
8569;BME280;4322;51.104;-4.162;2022-11-15T05:15:59;99213.41;;;12.10;100.00
8569;BME280;4322;51.104;-4.162;2022-11-15T05:18:27;99186.50;;;11.99;100.00
8569;BME280;4322;51.104;-4.162;2022-11-15T05:20:55;99189.03;;;11.89;100.00
8569;BME280;4322;51.104;-4.162;2022-11-15T05:23:24;99185.38;;;11.80;100.00
8569;BME280;4322;51.104;-4.162;2022-11-15T05:25:52;99196.06;;;11.77;100.00
8569;BME280;4322;51.104;-4.162;2022-11-15T05:28:20;99183.97;;;11.76;100.00
8569;BME280;4322;51.104;-4.162;2022-11-15T05:30:48;99189.19;;;11.76;100.00
8569;BME280;4322;51.104;-4.162;2022-11-15T05:33:17;99187.53;;;11.75;100.00
8569;BME280;4322;51.104;-4.162;2022-11-15T05:35:48;99173.53;;;11.76;100.00
8569;BME280;4322;51.104;-4.162;2022-11-15T05:38:21;99154.53;;;11.74;100.00
8569;BME280;4322;51.104;-4.162;2022-11-15T05:40:50;99152.78;;;11.75;100.00
8569;BME280;4322;51.104;-4.162;2022-11-15T05:43:19;99143.31;;;11.74;100.00
8569;BME280;4322;51.104;-4.162;2022-11-15T05:45:47;99128.94;;;11.68;100.00
8569;BME280;4322;51.104;-4.162;2022-11-15T05:48:15;99133.44;;;11.66;100.00
8569;BME280;4322;51.104;-4.162;2022-11-15T05:50:45;99123.38;;;11.62;100.00
8569;BME280;4322;51.104;-4.162;2022-11-15T05:53:16;99121.69;;;11.61;100.00
8569;BME280;4322;51.104;-4.162;2022-11-15T05:55:45;99129.66;;;11.59;100.00
8569;BME280;4322;51.104;-4.162;2022-11-15T05:58:15;99125.75;;;11.54;100.00
8569;BME280;4322;51.104;-4.162;2022-11-15T06:00:43;99114.72;;;11.50;100.00
8569;BME280;4322;51.104;-4.162;2022-11-15T06:03:12;99122.78;;;11.47;100.00
8569;BME280;4322;51.104;-4.162;2022-11-15T06:05:40;99121.16;;;11.46;100.00
8569;BME280;4322;51.104;-4.162;2022-11-15T06:08:08;99134.19;;;11.46;100.00
8569;BME280;4322;51.104;-4.162;2022-11-15T06:10:36;99140.34;;;11.45;100.00
8569;BME280;4322;51.104;-4.162;2022-11-15T06:13:05;99126.63;;;11.43;100.00
8569;BME280;4322;51.104;-4.162;2022-11-15T06:15:34;99109.19;;;11.44;100.00
8569;BME280;4322;51.104;-4.162;2022-11-15T06:18:02;99089.28;;;11.43;100.00
8569;BME280;4322;51.104;-4.162;2022-11-15T06:20:30;99094.47;;;11.43;100.00
8569;BME280;4322;51.104;-4.162;2022-11-15T06:22:59;99097.22;;;11.41;100.00
8569;BME280;4322;51.104;-4.162;2022-11-15T06:25:29;99116.41;;;11.40;100.00
8569;BME280;4322;51.104;-4.162;2022-11-15T06:27:58;99094.84;;;11.38;100.00
8569;BME280;4322;51.104;-4.162;2022-11-15T06:30:27;99090.72;;;11.35;100.00
8569;BME280;4322;51.104;-4.162;2022-11-15T06:33:01;99081.22;;;11.34;100.00
8569;BME280;4322;51.104;-4.162;2022-11-15T06:35:32;99073.53;;;11.33;100.00
8569;BME280;4322;51.104;-4.162;2022-11-15T06:38:05;99082.16;;;11.33;100.00
8569;BME280;4322;51.104;-4.162;2022-11-15T06:40:34;99079.56;;;11.33;100.00
8569;BME280;4322;51.104;-4.162;2022-11-15T06:43:03;99092.72;;;11.32;100.00
8569;BME280;4322;51.104;-4.162;2022-11-15T06:45:32;99102.22;;;11.33;100.00
8569;BME280;4322;51.104;-4.162;2022-11-15T06:48:02;99092.03;;;11.30;100.00
8569;BME280;4322;51.104;-4.162;2022-11-15T06:50:31;99089.28;;;11.31;100.00
8569;BME280;4322;51.104;-4.162;2022-11-15T06:53:01;99078.03;;;11.31;100.00
8569;BME280;4322;51.104;-4.162;2022-11-15T06:55:32;99072.56;;;11.34;100.00
8569;BME280;4322;51.104;-4.162;2022-11-15T06:58:00;99076.84;;;11.35;100.00
8569;BME280;4322;51.104;-4.162;2022-11-15T07:00:28;99104.47;;;11.38;100.00
8569;BME280;4322;51.104;-4.162;2022-11-15T07:02:59;99111.44;;;11.37;100.00
8569;BME280;4322;51.104;-4.162;2022-11-15T07:05:29;99126.38;;;11.35;100.00
8569;BME280;4322;51.104;-4.162;2022-11-15T07:07:58;99101.50;;;11.31;100.00
8569;BME280;4322;51.104;-4.162;2022-11-15T07:10:27;99091.56;;;11.25;100.00
8569;BME280;4322;51.104;-4.162;2022-11-15T07:12:56;99096.28;;;11.20;100.00
8569;BME280;4322;51.104;-4.162;2022-11-15T07:15:25;99091.34;;;11.17;100.00
8569;BME280;4322;51.104;-4.162;2022-11-15T07:17:53;99083.88;;;11.12;100.00
8569;BME280;4322;51.104;-4.162;2022-11-15T07:20:21;99074.50;;;11.10;100.00
8569;BME280;4322;51.104;-4.162;2022-11-15T07:22:50;99076.53;;;11.06;100.00
8569;BME280;4322;51.104;-4.162;2022-11-15T07:25:18;99075.81;;;11.04;100.00
8569;BME280;4322;51.104;-4.162;2022-11-15T07:27:54;99083.78;;;11.03;100.00
8569;BME280;4322;51.104;-4.162;2022-11-15T07:30:22;99093.22;;;11.04;100.00
8569;BME280;4322;51.104;-4.162;2022-11-15T07:32:52;99099.19;;;11.06;100.00
8569;BME280;4322;51.104;-4.162;2022-11-15T07:35:20;99098.91;;;11.09;100.00
8569;BME280;4322;51.104;-4.162;2022-11-15T07:37:57;99098.81;;;11.10;100.00
8569;BME280;4322;51.104;-4.162;2022-11-15T07:40:26;99106.63;;;11.10;100.00
8569;BME280;4322;51.104;-4.162;2022-11-15T07:42:58;99115.16;;;11.12;100.00
8569;BME280;4322;51.104;-4.162;2022-11-15T07:45:27;99115.84;;;11.14;100.00
8569;BME280;4322;51.104;-4.162;2022-11-15T07:47:55;99109.94;;;11.12;100.00
8569;BME280;4322;51.104;-4.162;2022-11-15T07:50:24;99116.34;;;11.08;100.00
8569;BME280;4322;51.104;-4.162;2022-11-15T07:52:54;99110.66;;;11.03;100.00
8569;BME280;4322;51.104;-4.162;2022-11-15T07:55:25;99101.41;;;10.99;100.00
8569;BME280;4322;51.104;-4.162;2022-11-15T07:58:00;99097.97;;;10.99;100.00
8569;BME280;4322;51.104;-4.162;2022-11-15T08:00:29;99106.50;;;11.01;100.00
8569;BME280;4322;51.104;-4.162;2022-11-15T08:03:04;99121.91;;;11.04;100.00
8569;BME280;4322;51.104;-4.162;2022-11-15T08:05:33;99130.44;;;11.06;100.00
8569;BME280;4322;51.104;-4.162;2022-11-15T08:08:02;99128.78;;;11.05;100.00
8569;BME280;4322;51.104;-4.162;2022-11-15T08:10:32;99116.69;;;11.04;100.00
8569;BME280;4322;51.104;-4.162;2022-11-15T08:13:07;99113.28;;;11.03;100.00
8569;BME280;4322;51.104;-4.162;2022-11-15T08:15:36;99111.47;;;11.04;100.00
8569;BME280;4322;51.104;-4.162;2022-11-15T08:18:06;99129.03;;;11.02;100.00
8569;BME280;4322;51.104;-4.162;2022-11-15T08:20:34;99114.44;;;10.99;100.00
8569;BME280;4322;51.104;-4.162;2022-11-15T08:23:04;99103.31;;;10.97;100.00
8569;BME280;4322;51.104;-4.162;2022-11-15T08:25:34;99116.34;;;10.97;100.00
8569;BME280;4322;51.104;-4.162;2022-11-15T08:28:04;99118.81;;;10.99;100.00
8569;BME280;4322;51.104;-4.162;2022-11-15T08:30:35;99129.25;;;10.99;100.00
8569;BME280;4322;51.104;-4.162;2022-11-15T08:33:04;99129.25;;;10.99;100.00
8569;BME280;4322;51.104;-4.162;2022-11-15T08:35:32;99128.41;;;10.98;100.00
8569;BME280;4322;51.104;-4.162;2022-11-15T08:38:00;99126.88;;;10.96;100.00
8569;BME280;4322;51.104;-4.162;2022-11-15T08:40:29;99127.13;;;10.93;100.00
8569;BME280;4322;51.104;-4.162;2022-11-15T08:42:58;99127.13;;;10.93;100.00
8569;BME280;4322;51.104;-4.162;2022-11-15T08:45:29;99128.66;;;10.95;100.00
8569;BME280;4322;51.104;-4.162;2022-11-15T08:47:57;99132.56;;;11.01;100.00
8569;BME280;4322;51.104;-4.162;2022-11-15T08:50:26;99145.25;;;11.05;100.00
8569;BME280;4322;51.104;-4.162;2022-11-15T08:52:54;99144.28;;;11.06;100.00
8569;BME280;4322;51.104;-4.162;2022-11-15T08:55:22;99133.53;;;11.11;100.00
8569;BME280;4322;51.104;-4.162;2022-11-15T08:57:50;99137.78;;;11.12;100.00
8569;BME280;4322;51.104;-4.162;2022-11-15T09:00:20;99122.88;;;11.14;100.00
8569;BME280;4322;51.104;-4.162;2022-11-15T09:02:48;99123.44;;;11.17;100.00
8569;BME280;4322;51.104;-4.162;2022-11-15T09:05:16;99128.66;;;11.17;100.00
8569;BME280;4322;51.104;-4.162;2022-11-15T09:07:45;99125.25;;;11.17;100.00
8569;BME280;4322;51.104;-4.162;2022-11-15T09:10:14;99120.97;;;11.16;100.00
8569;BME280;4322;51.104;-4.162;2022-11-15T09:12:42;99114.22;;;11.13;100.00
8569;BME280;4322;51.104;-4.162;2022-11-15T09:15:10;99109.09;;;11.12;100.00
8569;BME280;4322;51.104;-4.162;2022-11-15T09:17:40;99096.31;;;11.09;100.00
8569;BME280;4322;51.104;-4.162;2022-11-15T09:20:09;99094.75;;;11.06;100.00
8569;BME280;4322;51.104;-4.162;2022-11-15T09:22:37;99088.03;;;11.04;100.00
8569;BME280;4322;51.104;-4.162;2022-11-15T09:25:07;99083.19;;;10.99;100.00
8569;BME280;4322;51.104;-4.162;2022-11-15T09:27:36;99079.97;;;10.96;100.00
8569;BME280;4322;51.104;-4.162;2022-11-15T09:30:05;99087.78;;;10.96;100.00
8569;BME280;4322;51.104;-4.162;2022-11-15T09:32:34;99100.81;;;10.96;100.00
8569;BME280;4322;51.104;-4.162;2022-11-15T09:35:07;99126.53;;;11.00;100.00
8569;BME280;4322;51.104;-4.162;2022-11-15T09:37:35;99165.03;;;11.08;100.00
8569;BME280;4322;51.104;-4.162;2022-11-15T09:40:03;99186.13;;;11.16;100.00
8569;BME280;4322;51.104;-4.162;2022-11-15T09:42:44;99188.28;;;11.22;100.00
8569;BME280;4322;51.104;-4.162;2022-11-15T09:45:18;99184.47;;;11.26;100.00
8569;BME280;4322;51.104;-4.162;2022-11-15T09:50:43;99174.50;;;11.31;100.00
8569;BME280;4322;51.104;-4.162;2022-11-15T09:53:15;99168.13;;;11.35;100.00
8569;BME280;4322;51.104;-4.162;2022-11-15T09:56:14;99168.72;;;11.39;100.00
8569;BME280;4322;51.104;-4.162;2022-11-15T09:58:48;99167.66;;;11.41;100.00
8569;BME280;4322;51.104;-4.162;2022-11-15T10:01:25;99157.31;;;11.40;100.00
8569;BME280;4322;51.104;-4.162;2022-11-15T10:03:59;99146.78;;;11.41;100.00
8569;BME280;4322;51.104;-4.162;2022-11-15T10:06:30;99151.03;;;11.42;100.00
8569;BME280;4322;51.104;-4.162;2022-11-15T10:09:03;99144.75;;;11.45;100.00
8569;BME280;4322;51.104;-4.162;2022-11-15T10:11:35;99147.94;;;11.48;100.00
8569;BME280;4322;51.104;-4.162;2022-11-15T10:14:10;99144.16;;;11.52;100.00
8569;BME280;4322;51.104;-4.162;2022-11-15T10:17:04;99141.16;;;11.57;100.00
8569;BME280;4322;51.104;-4.162;2022-11-15T10:19:39;99142.56;;;11.61;100.00
8569;BME280;4322;51.104;-4.162;2022-11-15T10:22:28;99140.56;;;11.64;100.00
8569;BME280;4322;51.104;-4.162;2022-11-15T10:25:12;99133.44;;;11.66;100.00
8569;BME280;4322;51.104;-4.162;2022-11-15T10:27:42;99121.09;;;11.68;100.00
8569;BME280;4322;51.104;-4.162;2022-11-15T10:30:14;99127.66;;;11.74;100.00
8569;BME280;4322;51.104;-4.162;2022-11-15T10:32:44;99131.41;;;11.81;100.00
8569;BME280;4322;51.104;-4.162;2022-11-15T10:35:21;99136.00;;;11.88;100.00
8569;BME280;4322;51.104;-4.162;2022-11-15T10:37:51;99113.94;;;11.92;100.00
8569;BME280;4322;51.104;-4.162;2022-11-15T10:40:21;99106.22;;;11.91;100.00
8569;BME280;4322;51.104;-4.162;2022-11-15T10:43:04;99089.28;;;11.85;100.00
8569;BME280;4322;51.104;-4.162;2022-11-15T10:45:33;99085.03;;;11.84;100.00
8569;BME280;4322;51.104;-4.162;2022-11-15T10:48:26;99092.31;;;11.90;100.00
8569;BME280;4322;51.104;-4.162;2022-11-15T10:50:55;99104.19;;;11.94;100.00
8569;BME280;4322;51.104;-4.162;2022-11-15T10:53:33;99108.09;;;12.00;100.00
8569;BME280;4322;51.104;-4.162;2022-11-15T10:56:08;99105.34;;;12.02;100.00
8569;BME280;4322;51.104;-4.162;2022-11-15T10:58:41;99095.72;;;12.02;100.00
8569;BME280;4322;51.104;-4.162;2022-11-15T11:01:12;99084.44;;;12.02;100.00
8569;BME280;4322;51.104;-4.162;2022-11-15T11:03:42;99070.69;;;12.00;100.00
8569;BME280;4322;51.104;-4.162;2022-11-15T11:06:12;99052.00;;;11.94;100.00
8569;BME280;4322;51.104;-4.162;2022-11-15T11:08:54;99068.47;;;11.95;100.00
8569;BME280;4322;51.104;-4.162;2022-11-15T11:11:22;99076.31;;;11.95;100.00
8569;BME280;4322;51.104;-4.162;2022-11-15T11:13:52;99079.41;;;11.89;100.00
8569;BME280;4322;51.104;-4.162;2022-11-15T11:16:42;99104.31;;;11.93;100.00
8569;BME280;4322;51.104;-4.162;2022-11-15T11:19:27;99120.88;;;12.03;100.00
8569;BME280;4322;51.104;-4.162;2022-11-15T11:22:03;99129.75;;;12.12;100.00
8569;BME280;4322;51.104;-4.162;2022-11-15T11:24:38;99161.03;;;12.23;100.00
8569;BME280;4322;51.104;-4.162;2022-11-15T11:27:20;99181.16;;;12.32;100.00
8569;BME280;4322;51.104;-4.162;2022-11-15T11:30:03;99187.56;;;12.39;100.00
8569;BME280;4322;51.104;-4.162;2022-11-15T11:32:43;99216.84;;;12.42;100.00
8569;BME280;4322;51.104;-4.162;2022-11-15T11:35:24;99245.59;;;12.42;100.00
8569;BME280;4322;51.104;-4.162;2022-11-15T11:38:05;99294.53;;;12.40;100.00
8569;BME280;4322;51.104;-4.162;2022-11-15T11:40:49;99354.63;;;12.40;100.00
8569;BME280;4322;51.104;-4.162;2022-11-15T11:43:26;99424.53;;;12.48;100.00
8569;BME280;4322;51.104;-4.162;2022-11-15T11:46:06;99478.69;;;12.57;100.00
8569;BME280;4322;51.104;-4.162;2022-11-15T11:48:41;99523.00;;;12.70;100.00
8569;BME280;4322;51.104;-4.162;2022-11-15T11:51:16;99533.34;;;12.82;100.00
8569;BME280;4322;51.104;-4.162;2022-11-15T11:53:51;99542.81;;;12.94;100.00
8569;BME280;4322;51.104;-4.162;2022-11-15T11:56:26;99542.94;;;13.04;100.00
8569;BME280;4322;51.104;-4.162;2022-11-15T11:59:01;99524.28;;;13.08;100.00
8569;BME280;4322;51.104;-4.162;2022-11-15T12:01:36;99519.53;;;13.13;100.00
8569;BME280;4322;51.104;-4.162;2022-11-15T12:04:09;99520.13;;;13.17;100.00
8569;BME280;4322;51.104;-4.162;2022-11-15T12:06:44;99535.56;;;13.20;100.00
8569;BME280;4322;51.104;-4.162;2022-11-15T12:09:16;99557.91;;;13.24;100.00
8569;BME280;4322;51.104;-4.162;2022-11-15T12:11:52;99581.09;;;13.29;100.00
8569;BME280;4322;51.104;-4.162;2022-11-15T12:14:32;99597.97;;;13.36;100.00
8569;BME280;4322;51.104;-4.162;2022-11-15T12:17:02;99631.97;;;13.47;100.00
8569;BME280;4322;51.104;-4.162;2022-11-15T12:19:30;99656.34;;;13.58;100.00
8569;BME280;4322;51.104;-4.162;2022-11-15T12:22:02;99675.69;;;13.67;100.00
8569;BME280;4322;51.104;-4.162;2022-11-15T12:24:42;99704.63;;;13.65;100.00
8569;BME280;4322;51.104;-4.162;2022-11-15T12:27:17;99765.22;;;13.61;100.00
8569;BME280;4322;51.104;-4.162;2022-11-15T12:29:54;99829.91;;;13.59;100.00
8569;BME280;4322;51.104;-4.162;2022-11-15T12:32:27;99899.28;;;13.53;100.00
8569;BME280;4322;51.104;-4.162;2022-11-15T12:34:57;100008.09;;;13.34;100.00
8569;BME280;4322;51.104;-4.162;2022-11-15T12:37:52;100099.34;;;13.38;100.00
8569;BME280;4322;51.104;-4.162;2022-11-15T12:40:30;100163.81;;;13.39;100.00
8569;BME280;4322;51.104;-4.162;2022-11-15T12:43:07;100200.47;;;13.39;100.00
8569;BME280;4322;51.104;-4.162;2022-11-15T12:45:53;100231.38;;;13.34;100.00
8569;BME280;4322;51.104;-4.162;2022-11-15T12:48:47;100269.25;;;13.29;100.00
8569;BME280;4322;51.104;-4.162;2022-11-15T12:51:15;100291.66;;;13.20;100.00
8569;BME280;4322;51.104;-4.162;2022-11-15T12:53:44;100316.53;;;13.13;100.00
8569;BME280;4322;51.104;-4.162;2022-11-15T12:56:20;100331.69;;;13.08;100.00
8569;BME280;4322;51.104;-4.162;2022-11-15T12:58:53;100322.66;;;12.99;100.00
8569;BME280;4322;51.104;-4.162;2022-11-15T13:01:58;100312.91;;;12.89;100.00
8569;BME280;4322;51.104;-4.162;2022-11-15T13:04:28;100322.63;;;12.87;100.00
8569;BME280;4322;51.104;-4.162;2022-11-15T13:07:00;100315.28;;;12.79;100.00
8569;BME280;4322;51.104;-4.162;2022-11-15T13:12:51;100258.03;;;12.62;100.00
8569;BME280;4322;51.104;-4.162;2022-11-15T13:18:34;100216.94;;;12.51;100.00
8569;BME280;4322;51.104;-4.162;2022-11-15T13:21:05;100216.19;;;12.49;100.00
8569;BME280;4322;51.104;-4.162;2022-11-15T13:24:03;100224.31;;;12.45;100.00
8569;BME280;4322;51.104;-4.162;2022-11-15T13:26:31;100218.38;;;12.43;100.00
8569;BME280;4322;51.104;-4.162;2022-11-15T13:29:00;100213.34;;;12.40;100.00
8569;BME280;4322;51.104;-4.162;2022-11-15T13:31:34;100218.78;;;12.37;100.00
8569;BME280;4322;51.104;-4.162;2022-11-15T13:34:18;100214.50;;;12.36;100.00
8569;BME280;4322;51.104;-4.162;2022-11-15T13:37:13;100220.66;;;12.35;100.00